Peristerion, Greece
Current Conditions -  °F | °C
As of 4:50 PM on Thursday 30 Oct 2014 (Local Time) from LGEL Reporting Station
Scattered Clouds Scattered Clouds  
Wind Chill: 66°   Ceiling: Unl
Heat Index: 66°   Visibility: 6mi
Dew Point: 46°   Wind: 5mph
Humidity: 49%   Direction: 340°NNW
Pressure: 30.03"   Gusts: NA
Location:  38.02°N, 23.7°E
Report Text: LGEL 301350Z 34004KT 9999 FEW020 SCT030 19/08 Q1017
Loading
Personal Weather Stations






























Interactive Weather Map
Tropical Storm Tracking
New forecast layout! Learn more

10-Day Weather Forecast

Advertisements
Track Severe Weather on mobile